sensor_id;sensor_type;location;lat;lon;timestamp;temperature;humidity
80937;DHT22;70395;51.382;7.074;2023-09-19T00:00:38;18.20;66.30
80937;DHT22;70395;51.382;7.074;2023-09-19T00:03:06;18.10;66.40
80937;DHT22;70395;51.382;7.074;2023-09-19T00:05:34;18.10;66.70
80937;DHT22;70395;51.382;7.074;2023-09-19T00:08:02;18.10;67.00
80937;DHT22;70395;51.382;7.074;2023-09-19T00:10:30;18.10;66.80
80937;DHT22;70395;51.382;7.074;2023-09-19T00:13:00;18.00;66.80
80937;DHT22;70395;51.382;7.074;2023-09-19T00:15:35;18.00;66.90
80937;DHT22;70395;51.382;7.074;2023-09-19T00:18:03;18.00;67.70
80937;DHT22;70395;51.382;7.074;2023-09-19T00:20:35;18.00;66.80
80937;DHT22;70395;51.382;7.074;2023-09-19T00:23:01;17.90;66.60
80937;DHT22;70395;51.382;7.074;2023-09-19T00:25:36;17.90;66.60
80937;DHT22;70395;51.382;7.074;2023-09-19T00:28:04;17.90;66.40
80937;DHT22;70395;51.382;7.074;2023-09-19T00:30:31;17.80;66.40
80937;DHT22;70395;51.382;7.074;2023-09-19T00:32:58;17.80;66.10
80937;DHT22;70395;51.382;7.074;2023-09-19T00:35:24;17.80;66.10
80937;DHT22;70395;51.382;7.074;2023-09-19T00:37:50;17.80;66.20
80937;DHT22;70395;51.382;7.074;2023-09-19T00:40:17;17.80;66.20
80937;DHT22;70395;51.382;7.074;2023-09-19T00:42:46;17.70;65.90
80937;DHT22;70395;51.382;7.074;2023-09-19T00:45:15;17.70;65.90
80937;DHT22;70395;51.382;7.074;2023-09-19T00:47:46;17.70;65.90
80937;DHT22;70395;51.382;7.074;2023-09-19T00:50:21;17.70;65.90
80937;DHT22;70395;51.382;7.074;2023-09-19T00:52:55;17.70;66.10
80937;DHT22;70395;51.382;7.074;2023-09-19T00:55:21;17.60;65.60
80937;DHT22;70395;51.382;7.074;2023-09-19T00:57:49;17.60;65.50
80937;DHT22;70395;51.382;7.074;2023-09-19T01:00:15;17.60;65.60
80937;DHT22;70395;51.382;7.074;2023-09-19T01:02:45;17.60;65.60
80937;DHT22;70395;51.382;7.074;2023-09-19T01:05:12;17.60;65.60
80937;DHT22;70395;51.382;7.074;2023-09-19T01:07:38;17.60;65.40
80937;DHT22;70395;51.382;7.074;2023-09-19T01:10:09;17.60;65.50
80937;DHT22;70395;51.382;7.074;2023-09-19T01:21:57;17.50;65.60
80937;DHT22;70395;51.382;7.074;2023-09-19T01:25:30;17.50;65.50
80937;DHT22;70395;51.382;7.074;2023-09-19T01:28:30;17.50;65.80
80937;DHT22;70395;51.382;7.074;2023-09-19T01:31:02;17.50;65.70
80937;DHT22;70395;51.382;7.074;2023-09-19T01:33:58;17.50;65.40
80937;DHT22;70395;51.382;7.074;2023-09-19T01:36:32;17.50;65.70
80937;DHT22;70395;51.382;7.074;2023-09-19T01:39:05;17.50;65.30
80937;DHT22;70395;51.382;7.074;2023-09-19T01:42:09;17.40;65.20
80937;DHT22;70395;51.382;7.074;2023-09-19T01:47:32;17.40;65.40
80937;DHT22;70395;51.382;7.074;2023-09-19T01:53:04;17.40;66.00
80937;DHT22;70395;51.382;7.074;2023-09-19T01:55:40;17.30;65.50
80937;DHT22;70395;51.382;7.074;2023-09-19T02:00:48;17.30;65.40
80937;DHT22;70395;51.382;7.074;2023-09-19T02:03:20;17.30;65.50
80937;DHT22;70395;51.382;7.074;2023-09-19T02:05:50;17.30;65.30
80937;DHT22;70395;51.382;7.074;2023-09-19T02:08:19;17.30;65.20
80937;DHT22;70395;51.382;7.074;2023-09-19T02:10:49;17.30;65.10
80937;DHT22;70395;51.382;7.074;2023-09-19T02:13:18;17.30;65.20
80937;DHT22;70395;51.382;7.074;2023-09-19T02:15:45;17.30;65.10
80937;DHT22;70395;51.382;7.074;2023-09-19T02:18:14;17.30;65.10
80937;DHT22;70395;51.382;7.074;2023-09-19T02:20:40;17.30;65.10
80937;DHT22;70395;51.382;7.074;2023-09-19T02:23:07;17.20;65.10
80937;DHT22;70395;51.382;7.074;2023-09-19T02:25:34;17.20;65.30
80937;DHT22;70395;51.382;7.074;2023-09-19T02:28:01;17.30;65.30
80937;DHT22;70395;51.382;7.074;2023-09-19T02:30:29;17.20;65.20
80937;DHT22;70395;51.382;7.074;2023-09-19T02:32:55;17.20;65.10
80937;DHT22;70395;51.382;7.074;2023-09-19T02:35:21;17.20;65.10
80937;DHT22;70395;51.382;7.074;2023-09-19T02:37:48;17.20;65.40
80937;DHT22;70395;51.382;7.074;2023-09-19T02:40:14;17.10;65.30
80937;DHT22;70395;51.382;7.074;2023-09-19T02:42:45;17.20;65.40
80937;DHT22;70395;51.382;7.074;2023-09-19T02:45:18;17.10;65.10
80937;DHT22;70395;51.382;7.074;2023-09-19T02:47:45;17.10;65.10
80937;DHT22;70395;51.382;7.074;2023-09-19T02:50:13;17.10;65.20
80937;DHT22;70395;51.382;7.074;2023-09-19T02:52:42;17.10;65.80
80937;DHT22;70395;51.382;7.074;2023-09-19T02:55:16;17.10;65.00
80937;DHT22;70395;51.382;7.074;2023-09-19T02:57:53;17.10;65.10
80937;DHT22;70395;51.382;7.074;2023-09-19T03:00:23;17.10;65.10
80937;DHT22;70395;51.382;7.074;2023-09-19T03:02:58;17.10;64.60
80937;DHT22;70395;51.382;7.074;2023-09-19T03:05:25;17.00;64.10
80937;DHT22;70395;51.382;7.074;2023-09-19T03:07:51;17.00;64.00
80937;DHT22;70395;51.382;7.074;2023-09-19T03:10:19;17.00;63.80
80937;DHT22;70395;51.382;7.074;2023-09-19T03:12:46;17.00;63.60
80937;DHT22;70395;51.382;7.074;2023-09-19T03:15:13;17.00;63.30
80937;DHT22;70395;51.382;7.074;2023-09-19T03:17:44;17.00;63.20
80937;DHT22;70395;51.382;7.074;2023-09-19T03:20:10;17.00;63.20
80937;DHT22;70395;51.382;7.074;2023-09-19T03:22:38;16.90;62.90
80937;DHT22;70395;51.382;7.074;2023-09-19T03:25:08;16.90;62.90
80937;DHT22;70395;51.382;7.074;2023-09-19T03:27:35;16.90;62.90
80937;DHT22;70395;51.382;7.074;2023-09-19T03:30:01;16.90;62.90
80937;DHT22;70395;51.382;7.074;2023-09-19T03:32:31;16.90;62.70
80937;DHT22;70395;51.382;7.074;2023-09-19T03:34:56;16.90;62.50
80937;DHT22;70395;51.382;7.074;2023-09-19T03:37:22;16.90;62.60
80937;DHT22;70395;51.382;7.074;2023-09-19T03:39:48;16.80;62.50
80937;DHT22;70395;51.382;7.074;2023-09-19T03:42:14;16.80;62.50
80937;DHT22;70395;51.382;7.074;2023-09-19T03:44:40;16.80;62.40
80937;DHT22;70395;51.382;7.074;2023-09-19T03:47:05;16.80;62.30
80937;DHT22;70395;51.382;7.074;2023-09-19T03:49:32;16.80;62.50
80937;DHT22;70395;51.382;7.074;2023-09-19T03:51:59;16.80;62.50
80937;DHT22;70395;51.382;7.074;2023-09-19T03:54:25;16.70;62.20
80937;DHT22;70395;51.382;7.074;2023-09-19T03:56:51;16.70;62.30
80937;DHT22;70395;51.382;7.074;2023-09-19T03:59:16;16.70;62.20
80937;DHT22;70395;51.382;7.074;2023-09-19T04:01:43;16.70;62.20
80937;DHT22;70395;51.382;7.074;2023-09-19T04:04:09;16.70;62.30
80937;DHT22;70395;51.382;7.074;2023-09-19T04:06:35;16.70;62.40
80937;DHT22;70395;51.382;7.074;2023-09-19T04:09:02;16.70;62.40
80937;DHT22;70395;51.382;7.074;2023-09-19T04:11:29;16.70;62.40
80937;DHT22;70395;51.382;7.074;2023-09-19T04:13:56;16.70;62.40
80937;DHT22;70395;51.382;7.074;2023-09-19T04:16:22;16.70;62.40
80937;DHT22;70395;51.382;7.074;2023-09-19T04:18:48;16.70;62.40
80937;DHT22;70395;51.382;7.074;2023-09-19T04:21:14;16.70;62.40
80937;DHT22;70395;51.382;7.074;2023-09-19T04:23:40;16.70;62.90
80937;DHT22;70395;51.382;7.074;2023-09-19T04:26:05;16.60;62.80
80937;DHT22;70395;51.382;7.074;2023-09-19T04:28:32;16.70;62.90
80937;DHT22;70395;51.382;7.074;2023-09-19T04:31:00;16.60;62.90
80937;DHT22;70395;51.382;7.074;2023-09-19T04:33:26;16.60;62.80
80937;DHT22;70395;51.382;7.074;2023-09-19T04:35:52;16.60;62.80
80937;DHT22;70395;51.382;7.074;2023-09-19T04:38:18;16.60;63.10
80937;DHT22;70395;51.382;7.074;2023-09-19T04:40:45;16.60;62.80
80937;DHT22;70395;51.382;7.074;2023-09-19T04:43:14;16.60;62.80
80937;DHT22;70395;51.382;7.074;2023-09-19T04:45:40;16.60;62.90
80937;DHT22;70395;51.382;7.074;2023-09-19T04:48:06;16.60;62.90
80937;DHT22;70395;51.382;7.074;2023-09-19T04:50:34;16.60;62.90
80937;DHT22;70395;51.382;7.074;2023-09-19T04:53:00;16.60;63.10
80937;DHT22;70395;51.382;7.074;2023-09-19T04:55:27;16.60;63.20
80937;DHT22;70395;51.382;7.074;2023-09-19T04:57:53;16.60;63.30
80937;DHT22;70395;51.382;7.074;2023-09-19T05:00:23;16.60;63.20
80937;DHT22;70395;51.382;7.074;2023-09-19T05:02:50;16.60;63.30
80937;DHT22;70395;51.382;7.074;2023-09-19T05:05:18;16.60;63.40
80937;DHT22;70395;51.382;7.074;2023-09-19T05:07:45;16.60;63.20
80937;DHT22;70395;51.382;7.074;2023-09-19T05:10:12;16.60;63.50
80937;DHT22;70395;51.382;7.074;2023-09-19T05:12:39;16.50;63.40
80937;DHT22;70395;51.382;7.074;2023-09-19T05:15:06;16.50;63.30
80937;DHT22;70395;51.382;7.074;2023-09-19T05:17:35;16.50;63.30
80937;DHT22;70395;51.382;7.074;2023-09-19T05:20:02;16.50;63.20
80937;DHT22;70395;51.382;7.074;2023-09-19T05:22:37;16.50;63.30
80937;DHT22;70395;51.382;7.074;2023-09-19T05:25:05;16.50;63.30
80937;DHT22;70395;51.382;7.074;2023-09-19T05:27:35;16.50;63.20
80937;DHT22;70395;51.382;7.074;2023-09-19T05:30:01;16.50;63.10
80937;DHT22;70395;51.382;7.074;2023-09-19T05:32:27;16.50;63.10
80937;DHT22;70395;51.382;7.074;2023-09-19T05:34:53;16.50;63.10
80937;DHT22;70395;51.382;7.074;2023-09-19T05:37:19;16.60;63.20
80937;DHT22;70395;51.382;7.074;2023-09-19T05:39:48;16.60;63.50
80937;DHT22;70395;51.382;7.074;2023-09-19T05:42:13;16.60;63.30
80937;DHT22;70395;51.382;7.074;2023-09-19T05:44:39;16.60;63.30
80937;DHT22;70395;51.382;7.074;2023-09-19T05:47:05;16.60;63.40
80937;DHT22;70395;51.382;7.074;2023-09-19T05:49:37;16.60;63.30
80937;DHT22;70395;51.382;7.074;2023-09-19T05:52:06;16.70;63.40
80937;DHT22;70395;51.382;7.074;2023-09-19T05:54:32;16.70;63.30
80937;DHT22;70395;51.382;7.074;2023-09-19T05:57:03;16.70;63.40
80937;DHT22;70395;51.382;7.074;2023-09-19T05:59:28;16.80;63.70
80937;DHT22;70395;51.382;7.074;2023-09-19T06:01:55;16.80;63.30
80937;DHT22;70395;51.382;7.074;2023-09-19T06:04:21;16.80;63.10
80937;DHT22;70395;51.382;7.074;2023-09-19T06:06:47;16.90;63.40
80937;DHT22;70395;51.382;7.074;2023-09-19T06:09:14;17.00;63.30
80937;DHT22;70395;51.382;7.074;2023-09-19T06:11:43;17.10;63.30
80937;DHT22;70395;51.382;7.074;2023-09-19T06:14:09;17.10;62.90
80937;DHT22;70395;51.382;7.074;2023-09-19T06:16:36;17.20;63.10
80937;DHT22;70395;51.382;7.074;2023-09-19T06:19:03;17.30;63.00
80937;DHT22;70395;51.382;7.074;2023-09-19T06:21:32;17.40;62.70
80937;DHT22;70395;51.382;7.074;2023-09-19T06:23:57;17.40;62.40
80937;DHT22;70395;51.382;7.074;2023-09-19T06:26:24;17.50;62.10
80937;DHT22;70395;51.382;7.074;2023-09-19T06:28:52;17.50;62.10
80937;DHT22;70395;51.382;7.074;2023-09-19T06:31:18;17.60;62.20
80937;DHT22;70395;51.382;7.074;2023-09-19T06:33:44;17.60;61.80
80937;DHT22;70395;51.382;7.074;2023-09-19T06:36:10;17.60;61.50
80937;DHT22;70395;51.382;7.074;2023-09-19T06:38:36;17.70;61.70
80937;DHT22;70395;51.382;7.074;2023-09-19T06:41:04;17.70;61.40
80937;DHT22;70395;51.382;7.074;2023-09-19T06:43:33;17.70;61.50
80937;DHT22;70395;51.382;7.074;2023-09-19T06:46:03;17.80;61.50
80937;DHT22;70395;51.382;7.074;2023-09-19T06:48:29;17.80;61.40
80937;DHT22;70395;51.382;7.074;2023-09-19T06:50:56;17.80;61.40
80937;DHT22;70395;51.382;7.074;2023-09-19T06:53:24;17.90;61.50
80937;DHT22;70395;51.382;7.074;2023-09-19T06:55:51;17.90;61.40
80937;DHT22;70395;51.382;7.074;2023-09-19T06:58:17;18.00;61.50
80937;DHT22;70395;51.382;7.074;2023-09-19T07:00:43;18.00;61.40
80937;DHT22;70395;51.382;7.074;2023-09-19T07:03:10;18.10;61.40
80937;DHT22;70395;51.382;7.074;2023-09-19T07:05:39;18.10;61.10
80937;DHT22;70395;51.382;7.074;2023-09-19T07:08:07;18.20;61.10
80937;DHT22;70395;51.382;7.074;2023-09-19T07:10:36;18.20;61.10
80937;DHT22;70395;51.382;7.074;2023-09-19T07:13:07;18.20;61.00
80937;DHT22;70395;51.382;7.074;2023-09-19T07:15:36;18.30;60.90
80937;DHT22;70395;51.382;7.074;2023-09-19T07:18:12;18.40;60.80
80937;DHT22;70395;51.382;7.074;2023-09-19T07:20:41;18.40;60.70
80937;DHT22;70395;51.382;7.074;2023-09-19T07:23:13;18.50;60.90
80937;DHT22;70395;51.382;7.074;2023-09-19T07:25:43;18.60;60.70
80937;DHT22;70395;51.382;7.074;2023-09-19T07:28:09;18.70;60.40
80937;DHT22;70395;51.382;7.074;2023-09-19T07:30:38;18.70;60.00
80937;DHT22;70395;51.382;7.074;2023-09-19T07:33:05;18.80;60.10
80937;DHT22;70395;51.382;7.074;2023-09-19T07:35:31;18.90;60.10
80937;DHT22;70395;51.382;7.074;2023-09-19T07:37:57;18.90;59.90
80937;DHT22;70395;51.382;7.074;2023-09-19T07:40:24;19.00;59.90
80937;DHT22;70395;51.382;7.074;2023-09-19T07:42:57;19.10;59.70
80937;DHT22;70395;51.382;7.074;2023-09-19T07:45:27;19.20;59.30
80937;DHT22;70395;51.382;7.074;2023-09-19T07:47:55;19.30;59.40
80937;DHT22;70395;51.382;7.074;2023-09-19T07:50:21;19.30;59.30
80937;DHT22;70395;51.382;7.074;2023-09-19T07:52:48;19.50;59.30
80937;DHT22;70395;51.382;7.074;2023-09-19T07:55:19;19.50;58.90
80937;DHT22;70395;51.382;7.074;2023-09-19T07:57:52;19.60;58.90
80937;DHT22;70395;51.382;7.074;2023-09-19T08:00:20;19.70;58.80
80937;DHT22;70395;51.382;7.074;2023-09-19T08:02:46;19.70;59.00
80937;DHT22;70395;51.382;7.074;2023-09-19T08:05:13;19.80;58.60
80937;DHT22;70395;51.382;7.074;2023-09-19T08:07:44;19.90;58.60
80937;DHT22;70395;51.382;7.074;2023-09-19T08:10:14;19.90;58.40
80937;DHT22;70395;51.382;7.074;2023-09-19T08:12:44;20.00;58.50
80937;DHT22;70395;51.382;7.074;2023-09-19T08:15:15;20.00;58.00
80937;DHT22;70395;51.382;7.074;2023-09-19T08:17:42;20.00;57.90
80937;DHT22;70395;51.382;7.074;2023-09-19T08:20:09;20.00;57.90
80937;DHT22;70395;51.382;7.074;2023-09-19T08:22:49;20.00;58.20
80937;DHT22;70395;51.382;7.074;2023-09-19T08:25:23;20.10;58.00
80937;DHT22;70395;51.382;7.074;2023-09-19T08:27:51;20.20;58.40
80937;DHT22;70395;51.382;7.074;2023-09-19T08:30:19;20.30;58.20
80937;DHT22;70395;51.382;7.074;2023-09-19T08:32:57;20.40;58.20
80937;DHT22;70395;51.382;7.074;2023-09-19T08:35:24;20.50;57.50
80937;DHT22;70395;51.382;7.074;2023-09-19T08:37:50;20.70;57.20
80937;DHT22;70395;51.382;7.074;2023-09-19T08:40:17;20.80;57.30
80937;DHT22;70395;51.382;7.074;2023-09-19T08:42:53;21.00;56.60
80937;DHT22;70395;51.382;7.074;2023-09-19T08:45:21;21.20;56.30
80937;DHT22;70395;51.382;7.074;2023-09-19T08:48:17;21.40;56.50
80937;DHT22;70395;51.382;7.074;2023-09-19T08:50:49;21.60;55.40
80937;DHT22;70395;51.382;7.074;2023-09-19T08:54:37;21.80;55.50
80937;DHT22;70395;51.382;7.074;2023-09-19T08:56:54;22.20;55.30
80937;DHT22;70395;51.382;7.074;2023-09-19T08:59:22;22.60;55.30
80937;DHT22;70395;51.382;7.074;2023-09-19T09:01:55;22.80;53.70
80937;DHT22;70395;51.382;7.074;2023-09-19T09:04:22;23.10;53.10
80937;DHT22;70395;51.382;7.074;2023-09-19T09:06:51;23.30;52.80
80937;DHT22;70395;51.382;7.074;2023-09-19T09:09:20;23.50;52.70
80937;DHT22;70395;51.382;7.074;2023-09-19T09:11:48;23.70;52.10
80937;DHT22;70395;51.382;7.074;2023-09-19T09:14:19;23.90;51.50
80937;DHT22;70395;51.382;7.074;2023-09-19T09:16:46;24.00;50.70
80937;DHT22;70395;51.382;7.074;2023-09-19T09:19:14;24.20;50.80
80937;DHT22;70395;51.382;7.074;2023-09-19T09:21:46;24.30;51.00
80937;DHT22;70395;51.382;7.074;2023-09-19T09:24:31;24.60;50.50
80937;DHT22;70395;51.382;7.074;2023-09-19T09:27:04;24.80;49.40
80937;DHT22;70395;51.382;7.074;2023-09-19T09:29:50;25.10;49.80
80937;DHT22;70395;51.382;7.074;2023-09-19T09:35:07;25.60;48.00
80937;DHT22;70395;51.382;7.074;2023-09-19T09:37:36;25.90;47.50
80937;DHT22;70395;51.382;7.074;2023-09-19T09:40:04;26.20;47.00
80937;DHT22;70395;51.382;7.074;2023-09-19T09:42:39;26.40;46.90
80937;DHT22;70395;51.382;7.074;2023-09-19T09:45:32;26.60;45.60
80937;DHT22;70395;51.382;7.074;2023-09-19T09:47:58;26.70;44.70
80937;DHT22;70395;51.382;7.074;2023-09-19T09:50:46;26.70;45.50
80937;DHT22;70395;51.382;7.074;2023-09-19T09:53:21;26.80;44.50
80937;DHT22;70395;51.382;7.074;2023-09-19T09:58:27;26.80;44.00
80937;DHT22;70395;51.382;7.074;2023-09-19T10:00:58;26.70;43.50
80937;DHT22;70395;51.382;7.074;2023-09-19T10:03:35;26.50;44.40
80937;DHT22;70395;51.382;7.074;2023-09-19T10:06:06;26.30;44.30
80937;DHT22;70395;51.382;7.074;2023-09-19T10:11:44;26.00;43.50
80937;DHT22;70395;51.382;7.074;2023-09-19T10:14:13;25.80;44.50
80937;DHT22;70395;51.382;7.074;2023-09-19T10:16:52;25.60;44.60
80937;DHT22;70395;51.382;7.074;2023-09-19T10:19:46;25.60;45.20
80937;DHT22;70395;51.382;7.074;2023-09-19T10:22:23;25.60;44.90
80937;DHT22;70395;51.382;7.074;2023-09-19T10:24:53;25.70;45.60
80937;DHT22;70395;51.382;7.074;2023-09-19T10:27:21;25.90;45.90
80937;DHT22;70395;51.382;7.074;2023-09-19T10:29:52;26.30;45.30
80937;DHT22;70395;51.382;7.074;2023-09-19T10:32:22;26.70;44.30
80937;DHT22;70395;51.382;7.074;2023-09-19T10:34:49;27.10;44.40
80937;DHT22;70395;51.382;7.074;2023-09-19T10:37:16;27.60;44.00
80937;DHT22;70395;51.382;7.074;2023-09-19T10:39:48;27.90;42.30
80937;DHT22;70395;51.382;7.074;2023-09-19T10:42:19;28.20;41.40
80937;DHT22;70395;51.382;7.074;2023-09-19T10:44:47;28.30;40.90
80937;DHT22;70395;51.382;7.074;2023-09-19T10:47:19;28.50;41.60
80937;DHT22;70395;51.382;7.074;2023-09-19T10:49:49;28.80;40.80
80937;DHT22;70395;51.382;7.074;2023-09-19T10:52:18;28.80;40.20
80937;DHT22;70395;51.382;7.074;2023-09-19T10:54:50;28.90;39.90
80937;DHT22;70395;51.382;7.074;2023-09-19T10:57:24;29.00;40.00
80937;DHT22;70395;51.382;7.074;2023-09-19T11:00:22;29.10;39.40
80937;DHT22;70395;51.382;7.074;2023-09-19T11:05:41;29.40;37.90
80937;DHT22;70395;51.382;7.074;2023-09-19T11:08:10;29.50;38.60
80937;DHT22;70395;51.382;7.074;2023-09-19T11:13:27;29.50;37.60
80937;DHT22;70395;51.382;7.074;2023-09-19T11:27:12;29.60;37.50
80937;DHT22;70395;51.382;7.074;2023-09-19T11:29:40;29.80;37.00
80937;DHT22;70395;51.382;7.074;2023-09-19T11:32:06;30.00;37.60
80937;DHT22;70395;51.382;7.074;2023-09-19T11:34:42;30.20;36.40
80937;DHT22;70395;51.382;7.074;2023-09-19T11:40:06;30.50;36.40
80937;DHT22;70395;51.382;7.074;2023-09-19T11:42:42;30.50;35.10
80937;DHT22;70395;51.382;7.074;2023-09-19T11:48:16;30.70;35.50
80937;DHT22;70395;51.382;7.074;2023-09-19T11:50:45;30.60;35.00
80937;DHT22;70395;51.382;7.074;2023-09-19T11:53:12;30.40;34.80
80937;DHT22;70395;51.382;7.074;2023-09-19T11:55:42;30.20;35.10
80937;DHT22;70395;51.382;7.074;2023-09-19T11:58:09;30.00;35.60
80937;DHT22;70395;51.382;7.074;2023-09-19T12:00:38;30.00;35.60
80937;DHT22;70395;51.382;7.074;2023-09-19T12:03:09;29.90;35.40
80937;DHT22;70395;51.382;7.074;2023-09-19T12:05:37;29.80;35.90
80937;DHT22;70395;51.382;7.074;2023-09-19T12:08:08;29.70;36.20
80937;DHT22;70395;51.382;7.074;2023-09-19T12:10:48;29.60;36.00
80937;DHT22;70395;51.382;7.074;2023-09-19T12:13:18;29.50;35.80
80937;DHT22;70395;51.382;7.074;2023-09-19T12:15:44;29.50;35.50
80937;DHT22;70395;51.382;7.074;2023-09-19T12:18:46;29.60;36.10
80937;DHT22;70395;51.382;7.074;2023-09-19T12:21:29;29.80;35.30
80937;DHT22;70395;51.382;7.074;2023-09-19T12:26:47;30.10;34.40
80937;DHT22;70395;51.382;7.074;2023-09-19T12:29:20;30.30;33.80
80937;DHT22;70395;51.382;7.074;2023-09-19T12:32:05;30.50;34.00
80937;DHT22;70395;51.382;7.074;2023-09-19T12:34:32;30.70;32.90
80937;DHT22;70395;51.382;7.074;2023-09-19T12:37:09;30.90;33.90
80937;DHT22;70395;51.382;7.074;2023-09-19T12:39:50;31.10;32.40
80937;DHT22;70395;51.382;7.074;2023-09-19T12:42:26;31.40;32.80
80937;DHT22;70395;51.382;7.074;2023-09-19T12:44:58;31.60;32.10
80937;DHT22;70395;51.382;7.074;2023-09-19T12:47:27;31.80;32.20
80937;DHT22;70395;51.382;7.074;2023-09-19T12:50:15;32.00;32.50
80937;DHT22;70395;51.382;7.074;2023-09-19T12:52:51;32.20;31.30
80937;DHT22;70395;51.382;7.074;2023-09-19T12:55:23;32.30;31.50
80937;DHT22;70395;51.382;7.074;2023-09-19T13:00:40;32.50;30.40
80937;DHT22;70395;51.382;7.074;2023-09-19T13:03:39;32.60;30.50
80937;DHT22;70395;51.382;7.074;2023-09-19T13:06:05;32.60;30.10
80937;DHT22;70395;51.382;7.074;2023-09-19T13:08:37;32.70;30.10
80937;DHT22;70395;51.382;7.074;2023-09-19T13:11:16;32.80;31.00
80937;DHT22;70395;51.382;7.074;2023-09-19T13:14:14;32.70;30.70
80937;DHT22;70395;51.382;7.074;2023-09-19T13:22:42;32.40;30.10
80937;DHT22;70395;51.382;7.074;2023-09-19T13:25:18;32.40;30.10
80937;DHT22;70395;51.382;7.074;2023-09-19T13:27:49;32.30;29.80
80937;DHT22;70395;51.382;7.074;2023-09-19T13:30:20;32.10;29.80
80937;DHT22;70395;51.382;7.074;2023-09-19T13:32:46;31.80;30.40
80937;DHT22;70395;51.382;7.074;2023-09-19T13:35:14;31.50;31.00
80937;DHT22;70395;51.382;7.074;2023-09-19T13:37:41;31.30;31.30
80937;DHT22;70395;51.382;7.074;2023-09-19T13:40:11;31.10;31.40
80937;DHT22;70395;51.382;7.074;2023-09-19T13:42:39;30.90;31.80
80937;DHT22;70395;51.382;7.074;2023-09-19T13:45:06;30.90;32.60
80937;DHT22;70395;51.382;7.074;2023-09-19T13:47:33;30.80;32.40
80937;DHT22;70395;51.382;7.074;2023-09-19T13:50:01;30.60;32.70
80937;DHT22;70395;51.382;7.074;2023-09-19T13:52:32;30.50;32.40
80937;DHT22;70395;51.382;7.074;2023-09-19T13:54:58;30.20;32.50
80937;DHT22;70395;51.382;7.074;2023-09-19T13:57:25;30.00;32.80
80937;DHT22;70395;51.382;7.074;2023-09-19T13:59:54;29.70;33.50
80937;DHT22;70395;51.382;7.074;2023-09-19T14:02:23;29.40;33.20
80937;DHT22;70395;51.382;7.074;2023-09-19T14:04:50;29.00;33.30
80937;DHT22;70395;51.382;7.074;2023-09-19T14:07:17;28.60;34.10
80937;DHT22;70395;51.382;7.074;2023-09-19T14:09:45;28.20;34.70
80937;DHT22;70395;51.382;7.074;2023-09-19T14:12:12;27.70;35.60
80937;DHT22;70395;51.382;7.074;2023-09-19T14:14:39;27.30;36.30
80937;DHT22;70395;51.382;7.074;2023-09-19T14:17:06;27.00;36.50
80937;DHT22;70395;51.382;7.074;2023-09-19T14:19:33;26.60;37.30
80937;DHT22;70395;51.382;7.074;2023-09-19T14:22:00;26.30;37.50
80937;DHT22;70395;51.382;7.074;2023-09-19T14:24:32;26.00;38.30
80937;DHT22;70395;51.382;7.074;2023-09-19T14:26:58;25.70;39.40
80937;DHT22;70395;51.382;7.074;2023-09-19T14:29:25;25.50;39.30
80937;DHT22;70395;51.382;7.074;2023-09-19T14:31:50;25.30;39.80
80937;DHT22;70395;51.382;7.074;2023-09-19T14:34:17;25.10;39.90
80937;DHT22;70395;51.382;7.074;2023-09-19T14:36:45;24.90;40.50
80937;DHT22;70395;51.382;7.074;2023-09-19T14:39:10;24.80;40.80
80937;DHT22;70395;51.382;7.074;2023-09-19T14:41:36;24.60;41.30
80937;DHT22;70395;51.382;7.074;2023-09-19T14:44:03;24.50;41.70
80937;DHT22;70395;51.382;7.074;2023-09-19T14:46:30;24.40;42.10
80937;DHT22;70395;51.382;7.074;2023-09-19T14:48:56;24.30;42.20
80937;DHT22;70395;51.382;7.074;2023-09-19T14:51:25;24.20;42.70
80937;DHT22;70395;51.382;7.074;2023-09-19T14:53:51;24.10;42.80
80937;DHT22;70395;51.382;7.074;2023-09-19T14:56:18;24.10;43.10
80937;DHT22;70395;51.382;7.074;2023-09-19T14:58:45;24.00;43.80
80937;DHT22;70395;51.382;7.074;2023-09-19T15:01:13;23.90;44.10
80937;DHT22;70395;51.382;7.074;2023-09-19T15:03:41;23.80;44.30
80937;DHT22;70395;51.382;7.074;2023-09-19T15:06:11;23.80;44.40
80937;DHT22;70395;51.382;7.074;2023-09-19T15:08:43;23.70;44.60
80937;DHT22;70395;51.382;7.074;2023-09-19T15:11:13;23.60;44.50
80937;DHT22;70395;51.382;7.074;2023-09-19T15:13:42;23.60;45.00
80937;DHT22;70395;51.382;7.074;2023-09-19T15:16:10;23.50;45.10
80937;DHT22;70395;51.382;7.074;2023-09-19T15:18:38;23.50;45.70
80937;DHT22;70395;51.382;7.074;2023-09-19T15:21:13;23.40;45.30
80937;DHT22;70395;51.382;7.074;2023-09-19T15:23:40;23.30;45.40
80937;DHT22;70395;51.382;7.074;2023-09-19T15:26:09;23.20;45.30
80937;DHT22;70395;51.382;7.074;2023-09-19T15:28:37;23.10;45.40
80937;DHT22;70395;51.382;7.074;2023-09-19T15:31:10;23.10;45.80
80937;DHT22;70395;51.382;7.074;2023-09-19T15:33:38;23.00;46.40
80937;DHT22;70395;51.382;7.074;2023-09-19T15:36:14;22.90;46.20
80937;DHT22;70395;51.382;7.074;2023-09-19T15:41:19;22.80;46.10
80937;DHT22;70395;51.382;7.074;2023-09-19T15:43:46;22.80;46.50
80937;DHT22;70395;51.382;7.074;2023-09-19T15:46:12;22.80;46.60
80937;DHT22;70395;51.382;7.074;2023-09-19T15:48:39;22.70;46.20
80937;DHT22;70395;51.382;7.074;2023-09-19T15:51:05;22.70;46.60
80937;DHT22;70395;51.382;7.074;2023-09-19T15:56:13;22.60;46.50
80937;DHT22;70395;51.382;7.074;2023-09-19T15:58:40;22.70;46.50
80937;DHT22;70395;51.382;7.074;2023-09-19T16:01:08;22.70;46.60
80937;DHT22;70395;51.382;7.074;2023-09-19T16:03:39;22.70;46.60
80937;DHT22;70395;51.382;7.074;2023-09-19T16:06:13;22.70;46.70
80937;DHT22;70395;51.382;7.074;2023-09-19T16:08:45;22.70;47.40
80937;DHT22;70395;51.382;7.074;2023-09-19T16:11:15;22.60;46.60
80937;DHT22;70395;51.382;7.074;2023-09-19T16:13:43;22.60;46.60
80937;DHT22;70395;51.382;7.074;2023-09-19T16:16:12;22.60;46.50
80937;DHT22;70395;51.382;7.074;2023-09-19T16:18:52;22.60;46.70
80937;DHT22;70395;51.382;7.074;2023-09-19T16:21:24;22.50;47.10
80937;DHT22;70395;51.382;7.074;2023-09-19T16:23:52;22.40;46.90
80937;DHT22;70395;51.382;7.074;2023-09-19T16:26:19;22.40;47.20
80937;DHT22;70395;51.382;7.074;2023-09-19T16:28:51;22.30;47.30
80937;DHT22;70395;51.382;7.074;2023-09-19T16:31:20;22.20;47.40
80937;DHT22;70395;51.382;7.074;2023-09-19T16:33:47;22.10;47.30
80937;DHT22;70395;51.382;7.074;2023-09-19T16:36:15;22.10;47.50
80937;DHT22;70395;51.382;7.074;2023-09-19T16:38:45;22.00;47.90
80937;DHT22;70395;51.382;7.074;2023-09-19T16:41:16;22.00;48.10
80937;DHT22;70395;51.382;7.074;2023-09-19T16:43:44;21.90;48.10
80937;DHT22;70395;51.382;7.074;2023-09-19T16:46:12;21.90;47.80
80937;DHT22;70395;51.382;7.074;2023-09-19T16:48:42;21.80;48.20
80937;DHT22;70395;51.382;7.074;2023-09-19T16:51:11;21.80;48.20
80937;DHT22;70395;51.382;7.074;2023-09-19T16:53:39;21.70;48.70